Time;durP1;ratioP1;P1;durP2;ratioP2;P2;SDS_P1;SDS_P2;PMS_P1;PMS_P2;Temp;Humidity;BMP_temperature;BMP_pressure;BME280_temperature;BME280_humidity;BME280_pressure;Samples;Min_cycle;Max_cycle;Signal;HPM_P1;HPM_P2
2022/11/11 06:43:56;;;;;;;2.17;1.97;;;;;;;;;;5074261;28;21165;-78
2022/11/11 06:46:23;;;;;;;2.63;2.07;;;;;;;;;;5054377;28;20413;-78
2022/11/11 06:48:50;;;;;;;2.63;2.13;;;2.80;99.90;;;;;;5054219;28;20418;-78
2022/11/11 07:27:21;;;;;;;7.63;4.43;;;3.20;99.90;;;;;;5134940;27;20270;-77
2022/11/11 07:29:47;;;;;;;11.80;5.97;;;3.30;99.90;;;;;;5135756;28;20475;-78
2022/11/11 07:32:16;;;;;;;12.47;6.13;;;3.40;99.90;;;;;;5116483;28;20167;-78
2022/11/11 07:34:43;;;;;;;17.77;13.73;;;3.40;99.90;;;;;;5125583;28;20195;-77
2022/11/11 07:37:09;;;;;;;8.93;5.43;;;3.40;99.90;;;;;;5133930;27;20178;-79
2022/11/11 07:39:35;;;;;;;9.07;5.53;;;3.50;99.90;;;;;;5134037;27;20227;-78
2022/11/11 07:42:01;;;;;;;10.07;5.23;;;3.60;99.90;;;;;;5134346;27;20537;-77
2022/11/11 07:44:26;;;;;;;12.13;7.10;;;3.70;99.90;;;;;;5134223;27;20592;-78
2022/11/11 07:46:52;;;;;;;11.43;6.80;;;3.70;99.90;;;;;;5133678;27;20198;-78
2022/11/11 07:49:18;;;;;;;11.17;7.20;;;3.90;99.90;;;;;;5133207;27;20250;-78
2022/11/11 07:51:43;;;;;;;12.53;7.13;;;3.90;99.90;;;;;;5133662;27;20216;-78
2022/11/11 07:54:09;;;;;;;22.50;13.63;;;4.20;99.90;;;;;;5133686;27;20195;-78
2022/11/11 07:56:35;;;;;;;8.87;6.17;;;4.30;99.90;;;;;;5131879;28;20175;-77
2022/11/11 07:59:00;;;;;;;11.20;7.70;;;4.40;99.90;;;;;;5132243;27;20174;-78
2022/11/11 08:01:26;;;;;;;10.47;7.27;;;4.50;99.90;;;;;;5132634;27;20171;-78
2022/11/11 08:03:52;;;;;;;11.63;8.43;;;4.80;99.90;;;;;;5132840;27;20215;-77
2022/11/11 08:06:19;;;;;;;9.30;6.53;;;4.90;99.90;;;;;;5132042;27;20195;-77
2022/11/11 08:08:45;;;;;;;4.00;2.97;;;5.20;99.90;;;;;;5131789;28;20171;-77
2022/11/11 08:11:11;;;;;;;5.57;3.20;;;5.50;99.90;;;;;;5131612;28;20652;-79
2022/11/11 08:13:39;;;;;;;3.40;3.10;;;5.70;99.90;;;;;;5132158;27;20188;-79
2022/11/11 08:16:07;;;;;;;3.60;2.67;;;5.90;99.90;;;;;;5134028;27;20180;-79
2022/11/11 08:18:34;;;;;;;4.83;2.67;;;6.00;99.90;;;;;;5132581;27;20663;-79
2022/11/11 08:21:00;;;;;;;5.00;2.57;;;6.30;99.90;;;;;;5133216;27;20173;-78
2022/11/11 08:23:31;;;;;;;7.27;3.57;;;6.40;99.90;;;;;;5131539;28;20212;-78
2022/11/11 08:26:05;;;;;;;3.17;2.20;;;6.40;99.90;;;;;;5131637;28;20207;-77
2022/11/11 08:28:33;;;;;;;3.27;2.20;;;6.40;99.90;;;;;;5132690;27;20168;-78
2022/11/11 08:31:00;;;;;;;6.70;2.43;;;6.20;99.90;;;;;;5133183;27;20175;-79
2022/11/11 08:33:26;;;;;;;5.23;2.57;;;6.30;99.90;;;;;;5132294;27;20211;-79
2022/11/11 08:35:53;;;;;;;5.10;2.20;;;6.40;99.90;;;;;;5132990;27;20184;-78
2022/11/11 08:38:22;;;;;;;4.37;2.07;;;6.40;99.90;;;;;;5120706;27;20168;-77
2022/11/11 08:40:48;;;;;;;2.47;1.87;;;6.40;99.90;;;;;;5117139;28;20173;-79
2022/11/11 08:43:14;;;;;;;4.23;1.80;;;6.50;99.90;;;;;;5118339;28;20245;-78
2022/11/11 08:45:40;;;;;;;2.37;2.03;;;6.70;99.90;;;;;;5118664;28;20202;-78
2022/11/11 08:48:08;;;;;;;3.80;2.03;;;7.00;99.90;;;;;;5117210;28;20617;-79
2022/11/11 08:50:38;;;;;;;3.97;1.70;;;7.20;99.90;;;;;;5117120;28;20254;-78
2022/11/11 08:53:06;;;;;;;1.93;1.70;;;7.30;99.90;;;;;;5117261;28;20225;-78
2022/11/11 08:55:32;;;;;;;2.03;1.70;;;7.60;99.90;;;;;;5118736;28;20531;-77
2022/11/11 08:58:01;;;;;;;3.67;1.73;;;7.70;99.90;;;;;;5118028;28;20172;-79
2022/11/11 09:00:27;;;;;;;3.30;1.70;;;7.90;99.90;;;;;;5117164;28;20175;-79
2022/11/11 09:02:53;;;;;;;7.23;2.53;;;8.30;99.90;;;;;;5118700;28;20178;-79
2022/11/11 09:05:19;;;;;;;5.80;2.70;;;8.70;99.90;;;;;;5116148;28;20245;-77
2022/11/11 09:07:45;;;;;;;3.07;2.60;;;8.90;99.90;;;;;;5117873;28;20195;-79
2022/11/11 09:10:10;;;;;;;4.23;2.00;;;8.80;99.90;;;;;;5119650;28;20578;-78
2022/11/11 09:12:36;;;;;;;3.03;2.10;;;8.50;99.90;;;;;;5116509;28;20195;-77
2022/11/11 09:15:02;;;;;;;3.43;1.87;;;8.40;99.90;;;;;;5116417;28;20195;-78
2022/11/11 09:17:28;;;;;;;2.57;1.90;;;8.40;99.90;;;;;;5116748;28;20167;-78
2022/11/11 09:19:53;;;;;;;3.47;2.33;;;8.70;99.90;;;;;;5118420;28;20174;-80
2022/11/11 09:22:19;;;;;;;2.90;2.20;;;8.80;99.90;;;;;;5118056;28;20242;-78
2022/11/11 09:24:44;;;;;;;2.27;2.00;;;8.70;99.90;;;;;;5117316;28;20195;-80
2022/11/11 09:27:10;;;;;;;8.60;2.33;;;8.70;99.90;;;;;;5117773;28;20203;-78
2022/11/11 09:29:36;;;;;;;4.47;1.83;;;8.60;99.90;;;;;;5117994;28;20167;-78
2022/11/11 09:32:02;;;;;;;2.50;1.53;;;8.50;99.90;;;;;;5116578;28;20542;-78
2022/11/11 09:34:28;;;;;;;4.53;1.83;;;8.50;99.90;;;;;;5117554;28;20183;-77
2022/11/11 09:36:54;;;;;;;1.93;1.40;;;8.50;99.90;;;;;;5117804;28;20182;-78
2022/11/11 09:39:19;;;;;;;3.50;2.17;;;8.50;99.90;;;;;;5118444;28;20669;-79
2022/11/11 09:42:21;;;;;;;3.87;2.03;;;8.50;99.90;;;;;;5118839;28;20164;-78
2022/11/11 09:45:10;;;;;;;2.30;1.50;;;8.70;99.90;;;;;;5116506;28;20201;-79
2022/11/11 09:48:00;;;;;;;1.93;1.50;;;8.80;99.90;;;;;;5118258;28;20164;-78
2022/11/11 09:50:29;;;;;;;2.37;1.47;;;8.90;99.90;;;;;;5115861;28;20225;-78
2022/11/11 09:53:17;;;;;;;2.97;1.40;;;9.00;99.90;;;;;;5117326;28;20232;-78
2022/11/11 09:56:01;;;;;;;2.50;1.60;;;9.20;99.90;;;;;;5117371;28;20582;-78
2022/11/11 09:58:38;;;;;;;3.87;2.03;;;9.30;99.90;;;;;;5116038;28;20563;-78
2022/11/11 10:01:11;;;;;;;2.97;2.00;;;9.40;99.90;;;;;;5115689;28;20174;-80
2022/11/11 10:03:52;;;;;;;3.63;1.73;;;9.90;99.90;;;;;;5115584;28;20187;-79
2022/11/11 10:06:27;;;;;;;51.23;30.67;;;10.40;99.90;;;;;;5116736;28;20270;-78
2022/11/11 10:09:28;;;;;;;4.73;3.37;;;10.70;99.90;;;;;;5117061;28;20250;-79
2022/11/11 10:11:59;;;;;;;1.60;1.50;;;11.00;99.90;;;;;;5108220;28;20218;-78
2022/11/11 10:14:33;;;;;;;2.53;1.47;;;11.20;99.90;;;;;;5115405;28;20240;-78
2022/11/11 10:17:02;;;;;;;6.03;2.20;;;11.20;99.90;;;;;;5117036;28;20562;-79
2022/11/11 10:19:32;;;;;;;2.37;1.80;;;11.30;99.90;;;;;;5116121;28;20180;-78
2022/11/11 10:22:34;;;;;;;2.70;1.90;;;11.40;99.90;;;;;;5115643;28;20179;-79
2022/11/11 10:25:13;;;;;;;2.63;1.83;;;11.40;99.90;;;;;;5075414;28;20243;-80
2022/11/11 10:27:44;;;;;;;3.20;1.90;;;11.90;99.90;;;;;;5112007;28;20278;-79
2022/11/11 10:30:21;;;;;;;1.93;1.50;;;12.40;99.90;;;;;;5117255;28;20278;-79
2022/11/11 10:33:11;;;;;;;1.73;1.20;;;12.60;99.90;;;;;;5116319;28;20191;-79
2022/11/11 10:35:39;;;;;;;2.40;1.30;;;12.60;99.90;;;;;;5116550;28;20183;-78
2022/11/11 10:38:45;;;;;;;5.00;1.93;;;12.50;99.90;;;;;;5116652;27;20185;-78
2022/11/11 10:41:39;;;;;;;2.17;1.50;;;12.40;99.90;;;;;;5115851;28;20174;-79
2022/11/11 10:44:22;;;;;;;3.17;1.93;;;12.40;99.90;;;;;;5115076;28;20693;-80
2022/11/11 10:47:25;;;;;;;2.60;1.70;;;12.30;99.90;;;;;;5116504;28;20200;-78
2022/11/11 10:49:57;;;;;;;2.67;1.60;;;12.20;99.90;;;;;;5115208;28;20262;-79
2022/11/11 10:52:31;;;;;;;3.87;1.73;;;12.40;99.90;;;;;;5114607;28;20266;-78
2022/11/11 10:55:08;;;;;;;2.13;1.83;;;12.60;99.90;;;;;;5115976;28;20187;-78
2022/11/11 10:57:40;;;;;;;3.13;1.93;;;13.00;99.90;;;;;;5115989;28;20160;-78
2022/11/11 11:00:11;;;;;;;2.23;1.70;;;13.50;99.90;;;;;;5114460;28;20173;-79
2022/11/11 11:03:11;;;;;;;2.43;1.70;;;13.90;99.90;;;;;;5116003;28;20218;-79
2022/11/11 11:05:52;;;;;;;2.87;1.90;;;14.50;99.90;;;;;;5115749;28;20252;-80
2022/11/11 11:08:26;;;;;;;2.77;2.10;;;14.90;99.90;;;;;;5117696;28;20556;-80
2022/11/11 11:10:58;;;;;;;2.20;1.80;;;15.20;99.90;;;;;;5117935;28;20162;-80
2022/11/11 11:13:24;;;;;;;2.20;2.00;;;15.00;99.90;;;;;;5132632;28;20192;-79
2022/11/11 11:15:56;;;;;;;5.93;2.60;;;14.90;99.90;;;;;;5121483;28;20197;-78
2022/11/11 11:18:23;;;;;;;9.83;2.17;;;15.30;99.90;;;;;;5116622;28;20183;-80
2022/11/11 11:21:04;;;;;;;6.27;2.33;;;15.90;99.90;;;;;;5117025;28;20185;-79
2022/11/11 11:23:36;;;;;;;2.90;1.57;;;16.40;99.90;;;;;;5115951;28;20198;-79
2022/11/11 11:26:03;;;;;;;3.00;1.60;;;16.60;99.90;;;;;;5115930;28;20220;-79
2022/11/11 11:28:29;;;;;;;3.53;1.50;;;16.50;99.90;;;;;;5115584;28;20180;-80
2022/11/11 11:31:01;;;;;;;3.03;1.60;;;16.40;99.90;;;;;;5117053;28;20175;-79
2022/11/11 11:33:26;;;;;;;3.00;1.57;;;16.20;99.90;;;;;;5116520;28;20708;-79
2022/11/11 11:35:52;;;;;;;3.73;1.80;;;15.90;99.90;;;;;;5117320;28;20199;-80
2022/11/11 11:38:18;;;;;;;1.70;1.60;;;15.70;99.90;;;;;;5118184;28;20512;-80
2022/11/11 11:40:51;;;;;;;2.27;1.90;;;15.30;99.90;;;;;;5117202;28;20702;-79
2022/11/11 11:43:37;;;;;;;2.47;2.27;;;15.10;99.90;;;;;;5117768;28;20258;-79
2022/11/11 11:46:14;;;;;;;2.53;2.03;;;15.00;99.90;;;;;;5118056;28;20251;-82
2022/11/11 11:48:57;;;;;;;2.57;1.60;;;15.00;99.90;;;;;;5117048;28;20224;-79
2022/11/11 11:51:27;;;;;;;1.80;1.53;;;15.00;99.90;;;;;;5117974;28;20511;-80
2022/11/11 11:54:22;;;;;;;1.97;1.77;;;15.10;99.90;;;;;;5116858;28;20297;-80
2022/11/11 11:56:52;;;;;;;2.53;1.57;;;15.20;99.90;;;;;;5117735;28;20190;-81
2022/11/11 11:59:21;;;;;;;1.80;1.70;;;15.40;99.90;;;;;;5115910;28;20160;-79
2022/11/11 12:01:53;;;;;;;9.37;1.80;;;15.70;99.90;;;;;;5117667;28;20182;-80
2022/11/11 12:04:40;;;;;;;2.13;1.60;;;16.10;99.90;;;;;;5116437;28;20199;-79
2022/11/11 12:07:20;;;;;;;2.30;1.50;;;16.60;99.90;;;;;;5116351;28;20692;-79
2022/11/11 12:10:06;;;;;;;2.07;1.73;;;16.80;99.90;;;;;;5117175;28;20577;-80
2022/11/11 12:12:38;;;;;;;1.67;1.57;;;16.70;99.90;;;;;;5117373;28;20178;-82
2022/11/11 12:15:27;;;;;;;2.47;1.63;;;16.70;99.90;;;;;;5121345;28;20206;-79
2022/11/11 12:18:30;;;;;;;2.13;1.70;;;16.90;99.90;;;;;;5121945;28;20164;-79
2022/11/11 12:21:05;;;;;;;2.57;2.20;;;17.10;99.90;;;;;;5121759;28;20167;-80
2022/11/11 12:23:56;;;;;;;4.67;2.03;;;17.10;99.90;;;;;;5121071;28;20194;-80
2022/11/11 12:26:37;;;;;;;2.20;1.80;;;16.70;99.90;;;;;;5121159;28;20248;-80
2022/11/11 12:29:31;;;;;;;2.07;1.67;;;16.10;99.90;;;;;;5119886;28;20174;-80
2022/11/11 12:32:07;;;;;;;1.70;1.60;;;16.00;99.90;;;;;;5119630;28;20175;-80
2022/11/11 12:34:42;;;;;;;2.33;2.03;;;16.00;99.90;;;;;;5122119;28;20203;-80
2022/11/11 12:37:30;;;;;;;2.47;1.60;;;16.20;99.90;;;;;;5120481;28;20199;-81
2022/11/11 12:40:16;;;;;;;3.57;1.87;;;16.00;99.90;;;;;;5119217;28;20171;-81
2022/11/11 12:43:22;;;;;;;1.73;1.60;;;15.50;99.90;;;;;;5121212;28;20164;-79
2022/11/11 12:46:10;;;;;;;2.13;1.70;;;15.40;99.90;;;;;;5077493;28;20188;-80
2022/11/11 12:49:05;;;;;;;3.23;1.47;;;15.40;99.90;;;;;;5119200;28;20549;-79
2022/11/11 12:52:04;;;;;;;3.57;1.60;;;15.30;99.90;;;;;;5120979;28;20170;-79
2022/11/11 12:54:54;;;;;;;2.07;1.70;;;15.30;99.90;;;;;;5119760;28;20195;-79
2022/11/11 12:57:58;;;;;;;2.10;1.80;;;15.30;99.90;;;;;;5119746;28;20195;-80
2022/11/11 13:00:24;;;;;;;2.77;1.83;;;14.90;99.90;;;;;;5120540;28;20160;-80
2022/11/11 13:03:19;;;;;;;2.83;1.80;;;14.40;99.90;;;;;;5119325;28;20177;-80
2022/11/11 13:06:09;;;;;;;3.57;1.90;;;14.10;99.90;;;;;;5118711;28;20225;-81
2022/11/11 13:09:11;;;;;;;3.03;1.77;;;13.80;99.90;;;;;;5119439;28;20165;-80
2022/11/11 13:12:05;;;;;;;2.80;1.90;;;13.80;99.90;;;;;;5117626;28;20640;-79
2022/11/11 13:14:36;;;;;;;2.30;1.70;;;13.70;99.90;;;;;;5119679;28;20210;-78
2022/11/11 13:17:10;;;;;;;2.50;1.70;;;13.60;99.90;;;;;;5120449;28;20301;-79
2022/11/11 13:19:41;;;;;;;2.57;2.00;;;13.50;99.90;;;;;;5117820;28;20617;-79
2022/11/11 13:22:14;;;;;;;2.57;1.97;;;13.40;99.90;;;;;;5118108;28;20176;-80
2022/11/11 13:24:40;;;;;;;3.47;1.73;;;13.20;99.90;;;;;;5117815;28;20192;-80
2022/11/11 13:27:14;;;;;;;2.30;1.60;;;13.10;99.90;;;;;;5118837;28;20248;-80
2022/11/11 13:30:01;;;;;;;4.53;2.17;;;13.00;99.90;;;;;;5119435;28;20207;-80
2022/11/11 13:32:49;;;;;;;2.63;1.70;;;13.00;99.90;;;;;;5119876;28;20292;-80
2022/11/11 13:35:21;;;;;;;1.60;1.50;;;12.90;99.90;;;;;;5118630;28;20637;-79
2022/11/11 13:37:47;;;;;;;3.20;1.90;;;12.90;99.90;;;;;;5118950;28;20164;-81
2022/11/11 13:40:39;;;;;;;2.87;2.10;;;12.90;99.90;;;;;;5118761;28;20184;-79
2022/11/11 13:43:14;;;;;;;3.20;2.03;;;12.90;99.90;;;;;;5119113;28;20172;-79
2022/11/11 13:45:42;;;;;;;2.20;1.77;;;12.90;99.90;;;;;;5118556;28;20175;-79
2022/11/11 13:48:38;;;;;;;3.10;1.77;;;13.00;99.90;;;;;;5121868;28;20246;-79
2022/11/11 13:51:30;;;;;;;3.07;2.43;;;13.10;99.90;;;;;;5120168;28;20225;-81
2022/11/11 13:53:58;;;;;;;3.53;1.93;;;13.00;99.90;;;;;;5116647;28;20692;-79
2022/11/11 13:56:43;;;;;;;4.03;1.80;;;12.90;99.90;;;;;;5116707;28;20616;-79
2022/11/11 13:59:23;;;;;;;3.87;2.00;;;12.90;99.90;;;;;;5117462;28;20187;-79
2022/11/11 14:02:13;;;;;;;3.20;1.77;;;12.90;99.90;;;;;;5118513;28;20172;-79
2022/11/11 14:05:16;;;;;;;2.07;1.67;;;12.90;99.90;;;;;;5117678;28;20635;-81
2022/11/11 14:07:47;;;;;;;6.13;2.10;;;12.80;99.90;;;;;;5057566;28;20199;-79
2022/11/11 14:10:15;;;;;;;2.27;2.07;;;12.70;99.90;;;;;;5111453;28;20187;-80
2022/11/11 14:12:43;;;;;;;3.50;1.97;;;12.60;99.90;;;;;;5117335;28;20195;-79
2022/11/11 14:15:40;;;;;;;3.07;2.17;;;12.50;99.90;;;;;;5117636;28;20202;-79
2022/11/11 14:18:25;;;;;;;3.80;2.10;;;12.50;99.90;;;;;;5118001;27;20166;-80
2022/11/11 14:20:54;;;;;;;5.73;2.30;;;12.40;99.90;;;;;;5119345;27;20208;-82
2022/11/11 14:23:32;;;;;;;5.73;2.40;;;12.30;99.90;;;;;;5118084;28;20238;-79
2022/11/11 14:26:10;;;;;;;3.90;2.20;;;12.20;99.90;;;;;;5116937;28;20259;-78
2022/11/11 14:28:36;;;;;;;4.73;1.93;;;12.10;99.90;;;;;;5117957;28;20171;-79
2022/11/11 14:31:17;;;;;;;2.90;2.13;;;12.00;99.90;;;;;;5117216;28;20182;-79
2022/11/11 14:33:58;;;;;;;2.57;2.27;;;11.90;99.90;;;;;;5116650;28;20196;-78
2022/11/11 14:36:46;;;;;;;5.80;2.80;;;11.80;99.90;;;;;;5116101;28;20203;-80
2022/11/11 14:39:12;;;;;;;5.43;2.57;;;11.70;99.90;;;;;;5116674;28;20201;-78
2022/11/11 14:41:40;;;;;;;3.07;2.23;;;11.60;99.90;;;;;;5118454;28;20173;-79
2022/11/11 14:44:35;;;;;;;9.43;2.27;;;11.50;99.90;;;;;;5118605;28;20673;-78
2022/11/11 14:47:07;;;;;;;2.97;2.33;;;11.30;99.90;;;;;;5107436;28;20187;-77
2022/11/11 14:49:49;;;;;;;6.70;2.70;;;11.20;99.90;;;;;;5117875;28;20176;-81
2022/11/11 14:52:53;;;;;;;5.20;2.43;;;11.10;99.90;;;;;;5118613;28;20182;-80
2022/11/11 14:55:21;;;;;;;3.93;3.40;;;10.90;99.90;;;;;;5074392;28;20207;-79
2022/11/11 14:58:07;;;;;;;2.87;2.50;;;10.70;99.90;;;;;;5108611;28;20187;-79
2022/11/11 15:00:44;;;;;;;5.50;3.63;;;10.70;99.90;;;;;;5109490;28;20217;-81
2022/11/11 15:03:16;;;;;;;10.97;3.63;;;10.60;99.90;;;;;;5117004;28;20206;-78
2022/11/11 15:06:05;;;;;;;9.33;4.43;;;10.50;99.90;;;;;;5117124;28;20171;-78
2022/11/11 15:08:49;;;;;;;55.50;9.03;;;10.40;99.90;;;;;;5110994;28;20191;-79
2022/11/11 15:11:27;;;;;;;6.00;4.13;;;10.40;99.90;;;;;;5117678;28;20175;-77
2022/11/11 15:14:26;;;;;;;11.70;4.47;;;10.30;99.90;;;;;;5115556;28;20207;-78
2022/11/11 15:17:22;;;;;;;8.93;4.30;;;10.30;99.90;;;;;;5127998;28;20190;-78
2022/11/11 15:20:28;;;;;;;19.67;4.67;;;10.20;99.90;;;;;;5117990;28;20545;-77
2022/11/11 15:23:04;;;;;;;6.80;4.10;;;10.20;99.90;;;;;;5116289;28;20171;-78
2022/11/11 15:25:49;;;;;;;8.03;6.70;;;10.10;99.90;;;;;;5115373;28;20213;-78
2022/11/11 15:28:47;;;;;;;13.80;6.83;;;10.10;99.90;;;;;;5116520;28;20217;-79
2022/11/11 15:31:48;;;;;;;22.47;8.53;;;9.90;99.90;;;;;;5114931;28;20240;-78
2022/11/11 15:34:48;;;;;;;7.47;5.37;;;9.80;99.90;;;;;;5113954;28;20201;-78
2022/11/11 15:37:17;;;;;;;8.77;5.30;;;9.70;99.90;;;;;;5093127;28;20200;-80
2022/11/11 15:39:50;;;;;;;9.70;5.40;;;9.60;99.90;;;;;;5102399;28;20272;-77
2022/11/11 15:42:21;;;;;;;6.83;5.03;;;9.40;99.90;;;;;;5115033;28;20170;-77
2022/11/11 15:44:47;;;;;;;15.20;5.00;;;9.30;99.90;;;;;;5114950;28;20204;-79
2022/11/11 15:47:14;;;;;;;9.50;5.33;;;9.20;99.90;;;;;;5115832;28;20175;-80
2022/11/11 15:49:43;;;;;;;5.83;4.50;;;9.10;99.90;;;;;;5119767;28;20184;-81
2022/11/11 15:52:26;;;;;;;7.67;4.00;;;9.00;99.90;;;;;;5119380;28;20180;-80
2022/11/11 15:54:53;;;;;;;7.27;5.20;;;8.90;99.90;;;;;;5119810;27;20590;-80
2022/11/11 15:57:22;;;;;;;9.60;4.50;;;8.80;99.90;;;;;;5118833;28;20194;-81
2022/11/11 15:59:48;;;;;;;13.87;7.47;;;8.80;99.90;;;;;;5117497;28;20245;-78
2022/11/11 16:02:21;;;;;;;14.27;9.00;;;8.70;99.90;;;;;;5118961;28;20634;-79
2022/11/11 16:04:52;;;;;;;20.50;10.87;;;8.60;99.90;;;;;;5118990;28;20204;-79
2022/11/11 16:07:25;;;;;;;18.27;11.37;;;8.50;99.90;;;;;;5117926;28;20174;-80
2022/11/11 16:09:53;;;;;;;19.07;11.73;;;8.50;99.90;;;;;;5119618;28;20168;-80
2022/11/11 16:12:29;;;;;;;13.90;10.40;;;8.40;99.90;;;;;;5120095;28;20174;-80
2022/11/11 16:14:57;;;;;;;16.57;10.80;;;8.40;99.90;;;;;;5119461;28;20196;-80
2022/11/11 16:17:27;;;;;;;15.30;10.30;;;8.30;99.90;;;;;;5119099;28;20812;-80
2022/11/11 16:19:53;;;;;;;14.33;9.30;;;8.20;99.90;;;;;;5119265;28;20165;-80
2022/11/11 16:22:24;;;;;;;13.93;9.13;;;8.20;99.90;;;;;;5119361;28;20506;-80
2022/11/11 16:24:50;;;;;;;10.67;8.13;;;8.10;99.90;;;;;;5119350;28;20191;-80
2022/11/11 16:27:25;;;;;;;13.43;8.13;;;8.00;99.90;;;;;;5118514;28;20194;-80
2022/11/11 16:29:51;;;;;;;12.43;8.33;;;7.90;99.90;;;;;;5117483;28;20266;-80
2022/11/11 16:32:36;;;;;;;11.50;9.07;;;7.80;99.90;;;;;;5118829;28;20531;-80
2022/11/11 16:35:25;;;;;;;14.13;9.07;;;7.70;99.90;;;;;;5117411;28;20208;-79
2022/11/11 16:37:53;;;;;;;13.73;8.60;;;7.70;99.90;;;;;;5118795;28;20247;-80
2022/11/11 16:40:35;;;;;;;11.87;9.03;;;7.60;99.90;;;;;;5118874;28;20655;-82
2022/11/11 16:43:24;;;;;;;15.03;11.47;;;7.50;99.90;;;;;;5117294;28;20621;-80
2022/11/11 16:46:02;;;;;;;15.90;10.83;;;7.40;99.90;;;;;;5116947;28;20648;-80
2022/11/11 16:48:30;;;;;;;15.30;10.83;;;7.30;99.90;;;;;;5119473;28;20196;-80
2022/11/11 16:51:08;;;;;;;16.03;10.73;;;7.30;99.90;;;;;;5118621;28;20181;-80
2022/11/11 16:53:42;;;;;;;14.23;11.13;;;7.30;99.90;;;;;;5120799;28;20282;-80
2022/11/11 16:56:19;;;;;;;21.93;11.07;;;7.20;99.90;;;;;;5117573;28;20213;-80
2022/11/11 16:59:14;;;;;;;18.70;12.80;;;7.00;99.90;;;;;;5116776;28;20251;-80
2022/11/11 17:01:45;;;;;;;18.50;13.20;;;7.00;99.90;;;;;;5118810;28;20181;-79
2022/11/11 17:04:11;;;;;;;24.00;15.13;;;7.00;99.90;;;;;;5118708;28;20279;-80
2022/11/11 17:07:00;;;;;;;19.10;12.97;;;6.90;99.90;;;;;;5118894;28;20172;-80
2022/11/11 17:09:38;;;;;;;19.53;12.87;;;6.80;99.90;;;;;;5118885;28;20214;-80
2022/11/11 17:12:05;;;;;;;16.27;12.00;;;6.80;99.90;;;;;;5117475;28;20167;-80
2022/11/11 17:14:37;;;;;;;19.47;13.73;;;6.70;99.90;;;;;;5119014;28;20202;-81
2022/11/11 17:17:06;;;;;;;27.97;15.97;;;6.70;99.90;;;;;;5116635;28;20193;-80
2022/11/11 17:19:32;;;;;;;21.57;16.17;;;6.60;99.90;;;;;;5117720;28;20184;-80
2022/11/11 17:22:09;;;;;;;25.03;16.17;;;6.50;99.90;;;;;;5120502;28;20171;-80
2022/11/11 17:24:35;;;;;;;21.07;14.57;;;6.60;99.90;;;;;;5119395;28;20240;-80
2022/11/11 17:27:02;;;;;;;18.27;14.17;;;6.40;99.90;;;;;;5117156;28;20188;-81
2022/11/11 17:29:27;;;;;;;27.53;16.87;;;6.40;99.90;;;;;;5117908;28;20220;-80
2022/11/11 17:31:53;;;;;;;28.53;18.67;;;6.30;99.90;;;;;;5117958;28;20180;-79
2022/11/11 17:34:19;;;;;;;31.30;19.00;;;;;;;;;;5116469;28;20205;-80
2022/11/11 17:36:45;;;;;;;26.87;19.23;;;;;;;;;;5116949;28;20262;-80
2022/11/11 17:39:11;;;;;;;29.27;18.40;;;6.20;99.90;;;;;;5117664;28;20167;-80
2022/11/11 17:41:36;;;;;;;27.23;17.53;;;6.20;99.90;;;;;;5118256;28;20183;-80
2022/11/11 17:44:02;;;;;;;26.03;19.50;;;6.10;99.90;;;;;;5117845;28;20199;-81
2022/11/11 17:46:28;;;;;;;26.20;18.60;;;;;;;;;;5117707;28;20172;-81
2022/11/11 17:48:55;;;;;;;32.07;18.10;;;6.00;99.90;;;;;;5116533;28;20181;-80
2022/11/11 17:51:23;;;;;;;30.83;20.50;;;6.00;99.90;;;;;;5118227;28;20240;-80
2022/11/11 17:53:49;;;;;;;32.53;20.30;;;;;;;;;;5117859;28;20241;-79
2022/11/11 17:56:15;;;;;;;31.13;21.07;;;5.90;99.90;;;;;;5117858;28;20222;-81
2022/11/11 17:58:40;;;;;;;33.03;20.90;;;5.90;99.90;;;;;;5117486;28;20164;-79
2022/11/11 18:01:09;;;;;;;29.57;19.40;;;5.80;99.90;;;;;;5116879;28;20251;-80
2022/11/11 18:03:35;;;;;;;32.10;19.60;;;5.70;99.90;;;;;;5115851;28;20273;-79
2022/11/11 18:06:00;;;;;;;24.20;16.70;;;5.70;99.90;;;;;;5115569;28;20183;-79
2022/11/11 18:08:29;;;;;;;22.67;15.77;;;5.70;99.90;;;;;;5116944;28;20179;-80
2022/11/11 18:10:59;;;;;;;21.37;14.83;;;5.50;99.90;;;;;;5117175;28;20167;-80
2022/11/11 18:13:26;;;;;;;26.10;17.27;;;5.70;99.90;;;;;;5116354;28;20180;-80
2022/11/11 18:15:53;;;;;;;32.97;21.37;;;5.50;99.90;;;;;;5115199;28;20224;-80
2022/11/11 18:18:19;;;;;;;42.53;25.67;;;;;;;;;;5118138;28;20161;-80
2022/11/11 18:20:44;;;;;;;38.57;26.43;;;5.70;99.90;;;;;;5115895;28;20179;-79
2022/11/11 18:23:10;;;;;;;44.73;29.07;;;;;;;;;;5117685;28;20638;-79
2022/11/11 18:25:36;;;;;;;47.97;32.03;;;5.70;99.90;;;;;;5115393;28;20203;-79
2022/11/11 18:28:01;;;;;;;45.17;27.63;;;5.80;99.90;;;;;;5116123;28;20173;-79
2022/11/11 18:30:27;;;;;;;40.67;27.53;;;;;;;;;;5118115;28;20187;-80
2022/11/11 18:32:53;;;;;;;154.53;70.53;;;5.90;99.90;;;;;;5117643;28;20184;-80
2022/11/11 18:35:19;;;;;;;45.80;28.57;;;5.70;99.90;;;;;;5117544;28;20206;-80
2022/11/11 18:37:45;;;;;;;38.33;25.67;;;;;;;;;;5116504;28;20176;-80
2022/11/11 18:40:11;;;;;;;38.20;25.87;;;5.70;99.90;;;;;;5116228;28;20172;-81
2022/11/11 18:42:36;;;;;;;116.97;53.83;;;5.60;99.90;;;;;;5116500;28;20168;-80
2022/11/11 18:45:03;;;;;;;209.87;79.67;;;;;;;;;;5116276;28;20677;-80
2022/11/11 18:47:29;;;;;;;303.73;109.60;;;;;;;;;;5115748;28;20168;-79
2022/11/11 18:49:55;;;;;;;304.37;114.10;;;;;;;;;;5115705;28;20255;-80
2022/11/11 18:52:21;;;;;;;232.97;95.77;;;;;;;;;;5116067;28;20182;-79
2022/11/11 18:54:47;;;;;;;129.17;57.80;;;;;;;;;;5114973;28;20219;-79
2022/11/11 18:57:13;;;;;;;167.73;73.93;;;5.80;99.90;;;;;;5114683;28;20204;-80
2022/11/11 18:59:39;;;;;;;59.47;32.50;;;;;;;;;;5116007;28;20642;-80
2022/11/11 19:02:04;;;;;;;31.10;17.73;;;5.90;99.90;;;;;;5116058;28;20178;-79
2022/11/11 19:04:30;;;;;;;23.50;16.33;;;;;;;;;;5117673;28;20197;-80
2022/11/11 19:06:56;;;;;;;17.83;13.00;;;5.70;99.90;;;;;;5116967;28;20206;-79
2022/11/11 19:09:23;;;;;;;18.83;12.17;;;;;;;;;;5117196;28;20176;-80
2022/11/11 19:11:49;;;;;;;19.60;14.13;;;5.90;99.90;;;;;;5115127;28;20183;-80
2022/11/11 19:14:15;;;;;;;18.73;10.90;;;;;;;;;;5115390;28;20195;-80
2022/11/11 19:16:42;;;;;;;15.60;10.60;;;5.90;99.90;;;;;;5116551;28;20222;-80
2022/11/11 19:19:08;;;;;;;55.77;22.90;;;;;;;;;;5119112;28;20225;-79
2022/11/11 19:21:35;;;;;;;23.50;14.50;;;;;;;;;;5118963;28;20171;-80
2022/11/11 19:24:02;;;;;;;17.97;12.90;;;5.50;99.90;;;;;;5116310;28;20185;-80
2022/11/11 19:26:30;;;;;;;17.27;11.70;;;5.80;99.90;;;;;;5115605;28;20193;-80
2022/11/11 19:28:56;;;;;;;19.20;11.70;;;5.80;99.90;;;;;;5114619;28;20176;-82
2022/11/11 19:31:24;;;;;;;20.07;12.63;;;5.90;99.90;;;;;;5114799;28;20187;-80
2022/11/11 19:33:51;;;;;;;16.37;11.73;;;5.80;99.90;;;;;;5116120;28;20221;-80
2022/11/11 19:36:18;;;;;;;16.43;11.60;;;;;;;;;;5115969;28;20650;-80
2022/11/11 19:38:46;;;;;;;16.67;11.77;;;5.70;99.90;;;;;;5116592;28;20171;-81
2022/11/11 19:41:17;;;;;;;20.40;12.37;;;;;;;;;;5114988;28;20248;-80
2022/11/11 19:43:42;;;;;;;21.33;12.87;;;6.00;99.90;;;;;;5116339;28;20195;-81
2022/11/11 19:46:12;;;;;;;16.87;12.60;;;5.80;99.90;;;;;;5116454;28;20234;-80
2022/11/11 19:48:38;;;;;;;17.90;11.00;;;;;;;;;;5116158;28;20180;-80
2022/11/11 19:51:06;;;;;;;13.47;10.80;;;5.60;99.90;;;;;;5116458;28;20186;-80
2022/11/11 19:53:32;;;;;;;15.43;10.70;;;5.50;99.90;;;;;;5116048;27;20285;-81
2022/11/11 19:56:06;;;;;;;15.83;11.27;;;5.50;99.90;;;;;;5116412;28;20228;-79
2022/11/11 19:58:32;;;;;;;14.83;11.13;;;5.50;99.90;;;;;;5114738;28;20583;-80
2022/11/11 20:01:09;;;;;;;18.83;11.60;;;5.50;99.90;;;;;;5115965;28;20192;-79
2022/11/11 20:03:36;;;;;;;21.13;15.53;;;;;;;;;;5114881;28;20243;-81
2022/11/11 20:06:03;;;;;;;20.53;15.17;;;;;;;;;;5116857;28;20581;-81
2022/11/11 20:08:30;;;;;;;18.73;12.97;;;;;;;;;;5116683;28;20304;-80
